sensor_id;sensor_type;location;lat;lon;timestamp;P1;durP1;ratioP1;P2;durP2;ratioP2
21647;SDS011;10985;54.182;7.890;2024-03-07T00:02:04;9.10;;;8.40;;
21647;SDS011;10985;54.182;7.890;2024-03-07T00:04:31;8.80;;;8.13;;
21647;SDS011;10985;54.182;7.890;2024-03-07T00:06:57;9.68;;;8.77;;
21647;SDS011;10985;54.182;7.890;2024-03-07T00:09:22;9.38;;;8.60;;
21647;SDS011;10985;54.182;7.890;2024-03-07T00:11:49;9.85;;;8.98;;
21647;SDS011;10985;54.182;7.890;2024-03-07T00:14:17;9.40;;;8.50;;
21647;SDS011;10985;54.182;7.890;2024-03-07T00:16:43;9.70;;;8.82;;
21647;SDS011;10985;54.182;7.890;2024-03-07T00:19:08;9.43;;;8.63;;
21647;SDS011;10985;54.182;7.890;2024-03-07T00:21:34;9.55;;;8.75;;
21647;SDS011;10985;54.182;7.890;2024-03-07T00:23:59;9.95;;;9.05;;
21647;SDS011;10985;54.182;7.890;2024-03-07T00:26:25;9.85;;;9.02;;
21647;SDS011;10985;54.182;7.890;2024-03-07T00:28:51;10.20;;;9.40;;
21647;SDS011;10985;54.182;7.890;2024-03-07T00:31:17;9.80;;;8.95;;
21647;SDS011;10985;54.182;7.890;2024-03-07T00:33:42;10.68;;;9.77;;
21647;SDS011;10985;54.182;7.890;2024-03-07T00:36:08;10.32;;;9.43;;
21647;SDS011;10985;54.182;7.890;2024-03-07T00:38:33;9.98;;;9.18;;
21647;SDS011;10985;54.182;7.890;2024-03-07T00:40:59;10.15;;;9.27;;
21647;SDS011;10985;54.182;7.890;2024-03-07T00:43:25;9.73;;;8.93;;
21647;SDS011;10985;54.182;7.890;2024-03-07T00:45:50;10.40;;;9.50;;
21647;SDS011;10985;54.182;7.890;2024-03-07T00:48:16;10.40;;;9.50;;
21647;SDS011;10985;54.182;7.890;2024-03-07T00:50:42;10.90;;;9.90;;
21647;SDS011;10985;54.182;7.890;2024-03-07T00:53:08;10.48;;;9.65;;
21647;SDS011;10985;54.182;7.890;2024-03-07T00:55:33;10.98;;;10.00;;
21647;SDS011;10985;54.182;7.890;2024-03-07T00:57:59;9.85;;;9.05;;
21647;SDS011;10985;54.182;7.890;2024-03-07T01:00:24;10.60;;;9.57;;
21647;SDS011;10985;54.182;7.890;2024-03-07T01:02:50;11.13;;;10.02;;
21647;SDS011;10985;54.182;7.890;2024-03-07T01:05:18;10.75;;;9.85;;
21647;SDS011;10985;54.182;7.890;2024-03-07T01:07:44;11.75;;;10.55;;
21647;SDS011;10985;54.182;7.890;2024-03-07T01:10:11;11.18;;;10.02;;
21647;SDS011;10985;54.182;7.890;2024-03-07T01:12:37;10.60;;;9.63;;
21647;SDS011;10985;54.182;7.890;2024-03-07T01:15:03;11.65;;;10.45;;
21647;SDS011;10985;54.182;7.890;2024-03-07T01:17:32;10.60;;;9.65;;
21647;SDS011;10985;54.182;7.890;2024-03-07T01:19:57;10.38;;;9.38;;
21647;SDS011;10985;54.182;7.890;2024-03-07T01:22:23;11.18;;;10.07;;
21647;SDS011;10985;54.182;7.890;2024-03-07T01:24:49;11.77;;;10.55;;
21647;SDS011;10985;54.182;7.890;2024-03-07T01:27:16;11.30;;;10.20;;
21647;SDS011;10985;54.182;7.890;2024-03-07T01:29:41;11.18;;;10.18;;
21647;SDS011;10985;54.182;7.890;2024-03-07T01:32:08;11.75;;;10.57;;
21647;SDS011;10985;54.182;7.890;2024-03-07T01:34:33;11.50;;;10.32;;
21647;SDS011;10985;54.182;7.890;2024-03-07T01:36:59;12.50;;;10.20;;
21647;SDS011;10985;54.182;7.890;2024-03-07T01:39:24;12.20;;;10.63;;
21647;SDS011;10985;54.182;7.890;2024-03-07T01:41:50;12.60;;;10.52;;
21647;SDS011;10985;54.182;7.890;2024-03-07T01:44:15;13.30;;;11.18;;
21647;SDS011;10985;54.182;7.890;2024-03-07T01:46:41;11.63;;;10.43;;
21647;SDS011;10985;54.182;7.890;2024-03-07T01:49:07;14.70;;;11.88;;
21647;SDS011;10985;54.182;7.890;2024-03-07T01:51:33;12.55;;;11.25;;
21647;SDS011;10985;54.182;7.890;2024-03-07T01:54:01;13.43;;;11.45;;
21647;SDS011;10985;54.182;7.890;2024-03-07T01:56:27;13.40;;;11.50;;
21647;SDS011;10985;54.182;7.890;2024-03-07T01:58:54;13.75;;;10.30;;
21647;SDS011;10985;54.182;7.890;2024-03-07T02:01:20;13.18;;;11.73;;
21647;SDS011;10985;54.182;7.890;2024-03-07T02:03:46;12.48;;;11.18;;
21647;SDS011;10985;54.182;7.890;2024-03-07T02:06:12;13.38;;;10.95;;
21647;SDS011;10985;54.182;7.890;2024-03-07T02:08:38;14.75;;;11.52;;
21647;SDS011;10985;54.182;7.890;2024-03-07T02:11:03;13.38;;;11.05;;
21647;SDS011;10985;54.182;7.890;2024-03-07T02:13:29;15.70;;;12.10;;
21647;SDS011;10985;54.182;7.890;2024-03-07T02:15:56;12.98;;;11.30;;
21647;SDS011;10985;54.182;7.890;2024-03-07T02:18:22;14.10;;;11.18;;
21647;SDS011;10985;54.182;7.890;2024-03-07T02:20:48;14.70;;;11.35;;
21647;SDS011;10985;54.182;7.890;2024-03-07T02:23:14;13.32;;;11.77;;
21647;SDS011;10985;54.182;7.890;2024-03-07T02:25:40;16.00;;;12.07;;
21647;SDS011;10985;54.182;7.890;2024-03-07T02:28:05;13.45;;;11.45;;
21647;SDS011;10985;54.182;7.890;2024-03-07T02:30:32;12.10;;;10.60;;
21647;SDS011;10985;54.182;7.890;2024-03-07T02:32:58;14.57;;;11.60;;
21647;SDS011;10985;54.182;7.890;2024-03-07T02:35:31;12.52;;;11.00;;
21647;SDS011;10985;54.182;7.890;2024-03-07T02:37:58;13.57;;;11.32;;
21647;SDS011;10985;54.182;7.890;2024-03-07T02:40:23;13.90;;;11.50;;
21647;SDS011;10985;54.182;7.890;2024-03-07T02:42:49;12.65;;;11.23;;
21647;SDS011;10985;54.182;7.890;2024-03-07T02:45:14;12.93;;;11.25;;
21647;SDS011;10985;54.182;7.890;2024-03-07T02:47:41;14.88;;;11.15;;
21647;SDS011;10985;54.182;7.890;2024-03-07T02:50:07;14.10;;;11.38;;
21647;SDS011;10985;54.182;7.890;2024-03-07T02:52:34;14.77;;;12.10;;
21647;SDS011;10985;54.182;7.890;2024-03-07T02:54:59;13.40;;;11.68;;
21647;SDS011;10985;54.182;7.890;2024-03-07T02:57:25;17.50;;;12.10;;
21647;SDS011;10985;54.182;7.890;2024-03-07T02:59:50;13.10;;;10.98;;
21647;SDS011;10985;54.182;7.890;2024-03-07T03:02:16;14.07;;;12.38;;
21647;SDS011;10985;54.182;7.890;2024-03-07T03:04:41;13.45;;;10.43;;
21647;SDS011;10985;54.182;7.890;2024-03-07T03:07:07;12.15;;;10.25;;
21647;SDS011;10985;54.182;7.890;2024-03-07T03:09:33;14.63;;;11.23;;
21647;SDS011;10985;54.182;7.890;2024-03-07T03:11:58;13.40;;;11.32;;
21647;SDS011;10985;54.182;7.890;2024-03-07T03:14:24;11.68;;;10.45;;
21647;SDS011;10985;54.182;7.890;2024-03-07T03:16:49;11.70;;;10.25;;
21647;SDS011;10985;54.182;7.890;2024-03-07T03:19:15;11.93;;;10.68;;
21647;SDS011;10985;54.182;7.890;2024-03-07T03:21:40;12.68;;;10.20;;
21647;SDS011;10985;54.182;7.890;2024-03-07T03:24:07;11.82;;;10.05;;
21647;SDS011;10985;54.182;7.890;2024-03-07T03:26:32;11.00;;;9.88;;
21647;SDS011;10985;54.182;7.890;2024-03-07T03:28:58;13.35;;;10.55;;
21647;SDS011;10985;54.182;7.890;2024-03-07T03:31:24;12.32;;;9.73;;
21647;SDS011;10985;54.182;7.890;2024-03-07T03:33:50;11.45;;;9.52;;
21647;SDS011;10985;54.182;7.890;2024-03-07T03:36:16;11.43;;;10.23;;
21647;SDS011;10985;54.182;7.890;2024-03-07T03:38:41;11.45;;;10.25;;
21647;SDS011;10985;54.182;7.890;2024-03-07T03:41:07;13.15;;;9.52;;
21647;SDS011;10985;54.182;7.890;2024-03-07T03:43:32;11.35;;;9.75;;
21647;SDS011;10985;54.182;7.890;2024-03-07T03:45:58;10.77;;;9.00;;
21647;SDS011;10985;54.182;7.890;2024-03-07T03:48:23;10.20;;;9.18;;
21647;SDS011;10985;54.182;7.890;2024-03-07T03:50:49;12.80;;;10.18;;
21647;SDS011;10985;54.182;7.890;2024-03-07T03:53:14;13.15;;;10.27;;
21647;SDS011;10985;54.182;7.890;2024-03-07T03:55:40;10.93;;;9.10;;
21647;SDS011;10985;54.182;7.890;2024-03-07T03:58:05;12.15;;;8.95;;
21647;SDS011;10985;54.182;7.890;2024-03-07T04:00:31;11.00;;;9.90;;
21647;SDS011;10985;54.182;7.890;2024-03-07T04:02:56;10.27;;;9.20;;
21647;SDS011;10985;54.182;7.890;2024-03-07T04:05:22;10.93;;;9.68;;
21647;SDS011;10985;54.182;7.890;2024-03-07T04:07:47;10.77;;;9.30;;
21647;SDS011;10985;54.182;7.890;2024-03-07T04:10:14;11.98;;;9.45;;
21647;SDS011;10985;54.182;7.890;2024-03-07T04:12:41;10.98;;;9.05;;
21647;SDS011;10985;54.182;7.890;2024-03-07T04:15:15;11.52;;;9.02;;
21647;SDS011;10985;54.182;7.890;2024-03-07T04:17:43;11.25;;;9.38;;
21647;SDS011;10985;54.182;7.890;2024-03-07T04:20:12;11.25;;;9.27;;
21647;SDS011;10985;54.182;7.890;2024-03-07T04:22:38;10.90;;;8.90;;
21647;SDS011;10985;54.182;7.890;2024-03-07T04:25:04;11.35;;;8.88;;
21647;SDS011;10985;54.182;7.890;2024-03-07T04:27:32;10.57;;;9.45;;
21647;SDS011;10985;54.182;7.890;2024-03-07T04:29:59;9.93;;;8.88;;
21647;SDS011;10985;54.182;7.890;2024-03-07T04:32:24;11.48;;;9.20;;
21647;SDS011;10985;54.182;7.890;2024-03-07T04:34:50;10.60;;;8.43;;
21647;SDS011;10985;54.182;7.890;2024-03-07T04:37:15;10.25;;;9.15;;
21647;SDS011;10985;54.182;7.890;2024-03-07T04:39:41;10.63;;;9.30;;
21647;SDS011;10985;54.182;7.890;2024-03-07T04:42:07;11.32;;;9.20;;
21647;SDS011;10985;54.182;7.890;2024-03-07T04:44:36;9.65;;;8.63;;
21647;SDS011;10985;54.182;7.890;2024-03-07T04:47:02;9.57;;;8.63;;
21647;SDS011;10985;54.182;7.890;2024-03-07T04:49:29;12.60;;;9.68;;
21647;SDS011;10985;54.182;7.890;2024-03-07T04:51:56;12.65;;;9.25;;
21647;SDS011;10985;54.182;7.890;2024-03-07T04:54:23;10.80;;;9.25;;
21647;SDS011;10985;54.182;7.890;2024-03-07T04:56:49;11.18;;;8.82;;
21647;SDS011;10985;54.182;7.890;2024-03-07T04:59:16;11.45;;;8.93;;
21647;SDS011;10985;54.182;7.890;2024-03-07T05:01:43;13.32;;;9.70;;
21647;SDS011;10985;54.182;7.890;2024-03-07T05:04:09;10.85;;;8.60;;
21647;SDS011;10985;54.182;7.890;2024-03-07T05:06:36;12.52;;;9.90;;
21647;SDS011;10985;54.182;7.890;2024-03-07T05:09:02;11.30;;;8.57;;
21647;SDS011;10985;54.182;7.890;2024-03-07T05:11:29;10.60;;;8.77;;
21647;SDS011;10985;54.182;7.890;2024-03-07T05:13:56;10.75;;;9.00;;
21647;SDS011;10985;54.182;7.890;2024-03-07T05:16:25;13.00;;;9.23;;
21647;SDS011;10985;54.182;7.890;2024-03-07T05:18:51;11.98;;;9.32;;
21647;SDS011;10985;54.182;7.890;2024-03-07T05:21:17;10.88;;;9.10;;
21647;SDS011;10985;54.182;7.890;2024-03-07T05:24:02;10.00;;;8.55;;
21647;SDS011;10985;54.182;7.890;2024-03-07T05:26:29;11.73;;;9.13;;
21647;SDS011;10985;54.182;7.890;2024-03-07T05:29:00;12.07;;;8.88;;
21647;SDS011;10985;54.182;7.890;2024-03-07T05:31:30;12.25;;;9.23;;
21647;SDS011;10985;54.182;7.890;2024-03-07T05:33:58;10.57;;;9.02;;
21647;SDS011;10985;54.182;7.890;2024-03-07T05:36:25;15.23;;;9.88;;
21647;SDS011;10985;54.182;7.890;2024-03-07T05:38:51;10.93;;;9.38;;
21647;SDS011;10985;54.182;7.890;2024-03-07T05:41:17;9.90;;;8.90;;
21647;SDS011;10985;54.182;7.890;2024-03-07T05:43:42;9.35;;;8.35;;
21647;SDS011;10985;54.182;7.890;2024-03-07T05:46:09;13.18;;;9.15;;
21647;SDS011;10985;54.182;7.890;2024-03-07T05:48:36;9.85;;;8.85;;
21647;SDS011;10985;54.182;7.890;2024-03-07T05:51:01;10.65;;;9.27;;
21647;SDS011;10985;54.182;7.890;2024-03-07T05:53:27;10.90;;;9.15;;
21647;SDS011;10985;54.182;7.890;2024-03-07T05:55:53;10.70;;;9.27;;
21647;SDS011;10985;54.182;7.890;2024-03-07T05:58:19;10.93;;;9.25;;
21647;SDS011;10985;54.182;7.890;2024-03-07T06:00:45;10.88;;;9.02;;
21647;SDS011;10985;54.182;7.890;2024-03-07T06:03:14;11.63;;;9.07;;
21647;SDS011;10985;54.182;7.890;2024-03-07T06:05:46;12.50;;;9.77;;
21647;SDS011;10985;54.182;7.890;2024-03-07T06:08:13;10.85;;;9.32;;
21647;SDS011;10985;54.182;7.890;2024-03-07T06:10:45;12.25;;;9.32;;
21647;SDS011;10985;54.182;7.890;2024-03-07T06:13:12;10.02;;;8.88;;
21647;SDS011;10985;54.182;7.890;2024-03-07T06:15:39;10.02;;;9.02;;
21647;SDS011;10985;54.182;7.890;2024-03-07T06:18:05;14.02;;;10.38;;
21647;SDS011;10985;54.182;7.890;2024-03-07T06:20:33;11.45;;;9.63;;
21647;SDS011;10985;54.182;7.890;2024-03-07T06:23:00;10.38;;;9.18;;
21647;SDS011;10985;54.182;7.890;2024-03-07T06:25:29;12.77;;;10.23;;
21647;SDS011;10985;54.182;7.890;2024-03-07T06:28:12;10.88;;;8.98;;
21647;SDS011;10985;54.182;7.890;2024-03-07T06:30:39;11.18;;;9.85;;
21647;SDS011;10985;54.182;7.890;2024-03-07T06:33:08;10.45;;;9.32;;
21647;SDS011;10985;54.182;7.890;2024-03-07T06:35:35;11.52;;;9.10;;
21647;SDS011;10985;54.182;7.890;2024-03-07T06:38:02;11.02;;;8.98;;
21647;SDS011;10985;54.182;7.890;2024-03-07T06:40:28;9.27;;;8.38;;
21647;SDS011;10985;54.182;7.890;2024-03-07T06:42:54;10.57;;;9.32;;
21647;SDS011;10985;54.182;7.890;2024-03-07T06:45:20;10.70;;;9.07;;
21647;SDS011;10985;54.182;7.890;2024-03-07T06:47:46;10.00;;;9.00;;
21647;SDS011;10985;54.182;7.890;2024-03-07T06:50:12;12.25;;;8.57;;
21647;SDS011;10985;54.182;7.890;2024-03-07T06:52:42;9.73;;;8.65;;
21647;SDS011;10985;54.182;7.890;2024-03-07T06:55:09;9.38;;;8.48;;
21647;SDS011;10985;54.182;7.890;2024-03-07T06:57:36;9.55;;;8.55;;
21647;SDS011;10985;54.182;7.890;2024-03-07T07:00:01;9.70;;;8.40;;
21647;SDS011;10985;54.182;7.890;2024-03-07T07:02:35;11.40;;;9.43;;
21647;SDS011;10985;54.182;7.890;2024-03-07T07:05:07;10.40;;;8.98;;
21647;SDS011;10985;54.182;7.890;2024-03-07T07:07:38;9.30;;;8.15;;
21647;SDS011;10985;54.182;7.890;2024-03-07T07:10:06;9.70;;;8.50;;
21647;SDS011;10985;54.182;7.890;2024-03-07T07:12:35;9.25;;;8.13;;
21647;SDS011;10985;54.182;7.890;2024-03-07T07:15:01;10.45;;;8.48;;
21647;SDS011;10985;54.182;7.890;2024-03-07T07:17:28;9.23;;;8.30;;
21647;SDS011;10985;54.182;7.890;2024-03-07T07:19:54;13.32;;;8.43;;
21647;SDS011;10985;54.182;7.890;2024-03-07T07:22:22;9.30;;;8.40;;
21647;SDS011;10985;54.182;7.890;2024-03-07T07:24:48;8.05;;;7.35;;
21647;SDS011;10985;54.182;7.890;2024-03-07T07:27:14;8.45;;;7.72;;
21647;SDS011;10985;54.182;7.890;2024-03-07T07:29:40;8.65;;;7.90;;
21647;SDS011;10985;54.182;7.890;2024-03-07T07:32:06;8.38;;;7.65;;
21647;SDS011;10985;54.182;7.890;2024-03-07T07:34:32;8.82;;;8.02;;
21647;SDS011;10985;54.182;7.890;2024-03-07T07:36:58;8.23;;;7.32;;
21647;SDS011;10985;54.182;7.890;2024-03-07T07:39:24;7.97;;;7.18;;
21647;SDS011;10985;54.182;7.890;2024-03-07T07:41:50;8.07;;;7.35;;
21647;SDS011;10985;54.182;7.890;2024-03-07T07:44:15;7.18;;;6.55;;
21647;SDS011;10985;54.182;7.890;2024-03-07T07:46:41;7.75;;;7.05;;
21647;SDS011;10985;54.182;7.890;2024-03-07T07:49:06;7.28;;;6.68;;
21647;SDS011;10985;54.182;7.890;2024-03-07T07:51:32;7.15;;;6.55;;
21647;SDS011;10985;54.182;7.890;2024-03-07T07:53:57;7.97;;;7.20;;
21647;SDS011;10985;54.182;7.890;2024-03-07T07:56:24;8.10;;;7.32;;
21647;SDS011;10985;54.182;7.890;2024-03-07T07:58:49;7.47;;;6.88;;
21647;SDS011;10985;54.182;7.890;2024-03-07T08:01:16;7.43;;;6.75;;
21647;SDS011;10985;54.182;7.890;2024-03-07T08:03:42;8.05;;;7.35;;
21647;SDS011;10985;54.182;7.890;2024-03-07T08:06:11;7.70;;;6.97;;
21647;SDS011;10985;54.182;7.890;2024-03-07T08:08:36;7.88;;;7.13;;
21647;SDS011;10985;54.182;7.890;2024-03-07T08:11:02;7.90;;;7.10;;
21647;SDS011;10985;54.182;7.890;2024-03-07T08:13:27;7.93;;;7.22;;
21647;SDS011;10985;54.182;7.890;2024-03-07T08:15:53;8.20;;;7.40;;
21647;SDS011;10985;54.182;7.890;2024-03-07T08:18:19;7.97;;;7.18;;
21647;SDS011;10985;54.182;7.890;2024-03-07T08:20:45;7.32;;;6.72;;
21647;SDS011;10985;54.182;7.890;2024-03-07T08:23:11;7.47;;;6.90;;
21647;SDS011;10985;54.182;7.890;2024-03-07T08:25:40;7.97;;;6.85;;
21647;SDS011;10985;54.182;7.890;2024-03-07T08:28:06;7.25;;;6.55;;
21647;SDS011;10985;54.182;7.890;2024-03-07T08:30:32;7.53;;;6.85;;
21647;SDS011;10985;54.182;7.890;2024-03-07T08:32:57;7.00;;;6.40;;
21647;SDS011;10985;54.182;7.890;2024-03-07T08:35:30;7.50;;;6.90;;
21647;SDS011;10985;54.182;7.890;2024-03-07T08:37:55;8.00;;;7.30;;
21647;SDS011;10985;54.182;7.890;2024-03-07T08:40:23;6.82;;;6.22;;
21647;SDS011;10985;54.182;7.890;2024-03-07T08:42:56;6.90;;;6.20;;
21647;SDS011;10985;54.182;7.890;2024-03-07T08:45:22;8.48;;;7.30;;
21647;SDS011;10985;54.182;7.890;2024-03-07T08:47:49;7.35;;;6.75;;
21647;SDS011;10985;54.182;7.890;2024-03-07T08:50:16;7.40;;;6.75;;
21647;SDS011;10985;54.182;7.890;2024-03-07T08:52:43;7.03;;;6.43;;
21647;SDS011;10985;54.182;7.890;2024-03-07T08:55:11;7.90;;;7.07;;
21647;SDS011;10985;54.182;7.890;2024-03-07T08:57:40;7.45;;;6.85;;
21647;SDS011;10985;54.182;7.890;2024-03-07T09:00:07;7.20;;;6.50;;
21647;SDS011;10985;54.182;7.890;2024-03-07T09:02:37;7.28;;;6.57;;
21647;SDS011;10985;54.182;7.890;2024-03-07T09:05:04;7.68;;;7.07;;
21647;SDS011;10985;54.182;7.890;2024-03-07T09:07:30;7.45;;;6.85;;
21647;SDS011;10985;54.182;7.890;2024-03-07T09:09:57;7.45;;;6.75;;
21647;SDS011;10985;54.182;7.890;2024-03-07T09:12:22;7.25;;;6.47;;
21647;SDS011;10985;54.182;7.890;2024-03-07T09:14:50;7.47;;;6.78;;
21647;SDS011;10985;54.182;7.890;2024-03-07T09:17:17;7.65;;;6.80;;
21647;SDS011;10985;54.182;7.890;2024-03-07T09:19:42;6.97;;;6.47;;
21647;SDS011;10985;54.182;7.890;2024-03-07T09:22:08;6.50;;;6.03;;
21647;SDS011;10985;54.182;7.890;2024-03-07T09:24:34;6.85;;;6.30;;
21647;SDS011;10985;54.182;7.890;2024-03-07T09:27:02;7.53;;;6.88;;
21647;SDS011;10985;54.182;7.890;2024-03-07T09:29:32;7.30;;;6.60;;
21647;SDS011;10985;54.182;7.890;2024-03-07T09:31:58;7.55;;;6.82;;
21647;SDS011;10985;54.182;7.890;2024-03-07T09:34:24;7.97;;;7.18;;
21647;SDS011;10985;54.182;7.890;2024-03-07T09:36:50;6.95;;;6.45;;
21647;SDS011;10985;54.182;7.890;2024-03-07T09:39:19;7.40;;;6.70;;
21647;SDS011;10985;54.182;7.890;2024-03-07T09:41:44;7.13;;;6.63;;
21647;SDS011;10985;54.182;7.890;2024-03-07T09:44:14;7.22;;;6.53;;
21647;SDS011;10985;54.182;7.890;2024-03-07T09:46:47;6.78;;;6.25;;
21647;SDS011;10985;54.182;7.890;2024-03-07T09:49:14;7.40;;;6.70;;
21647;SDS011;10985;54.182;7.890;2024-03-07T09:51:39;6.72;;;6.22;;
21647;SDS011;10985;54.182;7.890;2024-03-07T09:54:05;7.22;;;6.53;;
21647;SDS011;10985;54.182;7.890;2024-03-07T09:56:31;6.55;;;6.05;;
21647;SDS011;10985;54.182;7.890;2024-03-07T09:59:05;7.10;;;6.60;;
21647;SDS011;10985;54.182;7.890;2024-03-07T10:01:37;6.60;;;6.00;;
21647;SDS011;10985;54.182;7.890;2024-03-07T10:04:04;6.82;;;6.22;;
21647;SDS011;10985;54.182;7.890;2024-03-07T10:06:37;6.78;;;6.28;;
21647;SDS011;10985;54.182;7.890;2024-03-07T10:09:04;6.97;;;6.47;;
21647;SDS011;10985;54.182;7.890;2024-03-07T10:11:31;7.65;;;6.85;;
21647;SDS011;10985;54.182;7.890;2024-03-07T10:13:57;7.43;;;6.72;;
21647;SDS011;10985;54.182;7.890;2024-03-07T10:16:22;6.80;;;6.20;;
21647;SDS011;10985;54.182;7.890;2024-03-07T10:18:48;6.20;;;5.70;;
21647;SDS011;10985;54.182;7.890;2024-03-07T10:21:15;6.97;;;6.47;;
21647;SDS011;10985;54.182;7.890;2024-03-07T10:23:44;7.53;;;6.25;;
21647;SDS011;10985;54.182;7.890;2024-03-07T10:26:10;6.68;;;5.95;;
21647;SDS011;10985;54.182;7.890;2024-03-07T10:28:35;6.43;;;5.85;;
21647;SDS011;10985;54.182;7.890;2024-03-07T10:31:03;6.55;;;5.63;;
21647;SDS011;10985;54.182;7.890;2024-03-07T10:33:29;5.68;;;5.18;;
21647;SDS011;10985;54.182;7.890;2024-03-07T10:35:59;6.07;;;5.57;;
21647;SDS011;10985;54.182;7.890;2024-03-07T10:38:25;5.90;;;5.07;;
21647;SDS011;10985;54.182;7.890;2024-03-07T10:40:55;5.47;;;5.07;;
21647;SDS011;10985;54.182;7.890;2024-03-07T10:43:21;5.10;;;4.60;;
21647;SDS011;10985;54.182;7.890;2024-03-07T10:45:48;5.35;;;4.95;;
21647;SDS011;10985;54.182;7.890;2024-03-07T10:48:17;4.70;;;4.40;;
21647;SDS011;10985;54.182;7.890;2024-03-07T10:53:52;4.90;;;4.50;;
21647;SDS011;10985;54.182;7.890;2024-03-07T10:59:38;4.80;;;4.40;;
21647;SDS011;10985;54.182;7.890;2024-03-07T11:05:02;4.05;;;3.75;;
21647;SDS011;10985;54.182;7.890;2024-03-07T11:07:33;4.15;;;3.85;;
21647;SDS011;10985;54.182;7.890;2024-03-07T11:09:59;4.50;;;4.20;;
21647;SDS011;10985;54.182;7.890;2024-03-07T11:12:28;4.40;;;4.00;;
21647;SDS011;10985;54.182;7.890;2024-03-07T11:14:55;3.80;;;3.50;;
21647;SDS011;10985;54.182;7.890;2024-03-07T11:17:22;4.35;;;4.05;;
21647;SDS011;10985;54.182;7.890;2024-03-07T11:19:49;3.80;;;3.50;;
21647;SDS011;10985;54.182;7.890;2024-03-07T11:22:48;3.95;;;3.65;;
21647;SDS011;10985;54.182;7.890;2024-03-07T11:25:06;4.07;;;3.67;;
21647;SDS011;10985;54.182;7.890;2024-03-07T11:27:33;4.07;;;3.65;;
21647;SDS011;10985;54.182;7.890;2024-03-07T11:30:05;4.53;;;4.15;;
21647;SDS011;10985;54.182;7.890;2024-03-07T11:32:35;4.07;;;3.78;;
21647;SDS011;10985;54.182;7.890;2024-03-07T11:35:04;4.43;;;4.05;;
21647;SDS011;10985;54.182;7.890;2024-03-07T11:37:39;3.58;;;3.30;;
21647;SDS011;10985;54.182;7.890;2024-03-07T11:40:09;3.90;;;3.60;;
21647;SDS011;10985;54.182;7.890;2024-03-07T11:42:43;3.63;;;3.33;;
21647;SDS011;10985;54.182;7.890;2024-03-07T11:45:11;4.00;;;3.50;;
21647;SDS011;10985;54.182;7.890;2024-03-07T11:47:45;3.17;;;2.88;;
21647;SDS011;10985;54.182;7.890;2024-03-07T11:50:11;3.90;;;3.60;;
21647;SDS011;10985;54.182;7.890;2024-03-07T11:52:37;3.63;;;3.33;;
21647;SDS011;10985;54.182;7.890;2024-03-07T11:55:07;2.83;;;2.63;;
21647;SDS011;10985;54.182;7.890;2024-03-07T11:57:33;3.05;;;2.83;;
21647;SDS011;10985;54.182;7.890;2024-03-07T11:59:59;3.40;;;3.10;;
21647;SDS011;10985;54.182;7.890;2024-03-07T12:02:33;2.40;;;2.20;;
21647;SDS011;10985;54.182;7.890;2024-03-07T12:04:59;2.53;;;2.33;;
21647;SDS011;10985;54.182;7.890;2024-03-07T12:07:25;2.50;;;2.28;;
21647;SDS011;10985;54.182;7.890;2024-03-07T12:09:51;2.60;;;2.40;;
21647;SDS011;10985;54.182;7.890;2024-03-07T12:12:20;2.75;;;2.50;;
21647;SDS011;10985;54.182;7.890;2024-03-07T12:14:47;2.60;;;2.40;;
21647;SDS011;10985;54.182;7.890;2024-03-07T12:17:13;2.30;;;2.20;;
21647;SDS011;10985;54.182;7.890;2024-03-07T12:19:42;2.30;;;2.10;;
21647;SDS011;10985;54.182;7.890;2024-03-07T12:22:08;2.58;;;2.38;;
21647;SDS011;10985;54.182;7.890;2024-03-07T12:24:38;3.15;;;2.10;;
21647;SDS011;10985;54.182;7.890;2024-03-07T12:27:08;2.40;;;2.22;;
21647;SDS011;10985;54.182;7.890;2024-03-07T12:29:39;3.85;;;2.10;;
21647;SDS011;10985;54.182;7.890;2024-03-07T12:32:05;2.17;;;1.98;;
21647;SDS011;10985;54.182;7.890;2024-03-07T12:34:36;2.45;;;2.25;;
21647;SDS011;10985;54.182;7.890;2024-03-07T12:37:06;2.70;;;2.50;;
21647;SDS011;10985;54.182;7.890;2024-03-07T12:39:32;2.45;;;2.22;;
21647;SDS011;10985;54.182;7.890;2024-03-07T12:42:04;2.70;;;2.50;;
21647;SDS011;10985;54.182;7.890;2024-03-07T12:44:43;2.58;;;2.38;;
21647;SDS011;10985;54.182;7.890;2024-03-07T12:47:12;2.75;;;2.53;;
21647;SDS011;10985;54.182;7.890;2024-03-07T12:49:41;2.80;;;2.60;;
21647;SDS011;10985;54.182;7.890;2024-03-07T12:52:08;2.88;;;2.67;;
21647;SDS011;10985;54.182;7.890;2024-03-07T12:54:34;2.85;;;2.65;;
21647;SDS011;10985;54.182;7.890;2024-03-07T12:57:05;2.92;;;2.67;;
21647;SDS011;10985;54.182;7.890;2024-03-07T12:59:40;2.95;;;2.40;;
21647;SDS011;10985;54.182;7.890;2024-03-07T13:02:09;3.38;;;2.72;;
21647;SDS011;10985;54.182;7.890;2024-03-07T13:04:36;2.88;;;2.67;;
21647;SDS011;10985;54.182;7.890;2024-03-07T13:07:05;2.55;;;2.35;;
21647;SDS011;10985;54.182;7.890;2024-03-07T13:09:31;3.63;;;3.30;;
21647;SDS011;10985;54.182;7.890;2024-03-07T13:12:00;3.28;;;3.08;;
21647;SDS011;10985;54.182;7.890;2024-03-07T13:14:28;3.00;;;2.72;;
21647;SDS011;10985;54.182;7.890;2024-03-07T13:16:59;3.10;;;2.90;;
21647;SDS011;10985;54.182;7.890;2024-03-07T13:19:28;3.13;;;2.92;;
21647;SDS011;10985;54.182;7.890;2024-03-07T13:21:54;3.25;;;2.88;;
21647;SDS011;10985;54.182;7.890;2024-03-07T13:24:21;3.97;;;3.38;;
21647;SDS011;10985;54.182;7.890;2024-03-07T13:26:47;3.38;;;3.08;;
21647;SDS011;10985;54.182;7.890;2024-03-07T13:29:13;3.33;;;3.05;;
21647;SDS011;10985;54.182;7.890;2024-03-07T13:31:39;3.50;;;3.20;;
21647;SDS011;10985;54.182;7.890;2024-03-07T13:34:07;3.60;;;3.30;;
21647;SDS011;10985;54.182;7.890;2024-03-07T13:36:41;3.53;;;3.22;;
21647;SDS011;10985;54.182;7.890;2024-03-07T13:39:08;4.22;;;3.92;;
21647;SDS011;10985;54.182;7.890;2024-03-07T13:41:39;4.10;;;3.78;;
21647;SDS011;10985;54.182;7.890;2024-03-07T13:44:07;4.03;;;3.72;;
21647;SDS011;10985;54.182;7.890;2024-03-07T13:46:33;4.07;;;3.78;;
21647;SDS011;10985;54.182;7.890;2024-03-07T13:49:02;4.55;;;3.90;;
21647;SDS011;10985;54.182;7.890;2024-03-07T13:51:38;4.13;;;3.58;;
21647;SDS011;10985;54.182;7.890;2024-03-07T13:54:14;4.63;;;3.65;;
21647;SDS011;10985;54.182;7.890;2024-03-07T13:57:08;4.57;;;4.15;;
21647;SDS011;10985;54.182;7.890;2024-03-07T14:00:03;5.15;;;4.75;;
21647;SDS011;10985;54.182;7.890;2024-03-07T14:03:05;5.07;;;4.65;;
21647;SDS011;10985;54.182;7.890;2024-03-07T14:28:31;9.00;;;8.15;;
21647;SDS011;10985;54.182;7.890;2024-03-07T14:31:12;8.82;;;7.93;;
21647;SDS011;10985;54.182;7.890;2024-03-07T14:33:48;8.57;;;7.72;;
21647;SDS011;10985;54.182;7.890;2024-03-07T14:36:18;8.77;;;7.88;;
21647;SDS011;10985;54.182;7.890;2024-03-07T14:38:47;9.65;;;8.68;;
21647;SDS011;10985;54.182;7.890;2024-03-07T14:41:19;9.45;;;8.55;;
21647;SDS011;10985;54.182;7.890;2024-03-07T14:44:06;10.20;;;9.20;;
21647;SDS011;10985;54.182;7.890;2024-03-07T14:46:32;10.63;;;9.00;;
21647;SDS011;10985;54.182;7.890;2024-03-07T14:48:58;9.77;;;8.88;;
21647;SDS011;10985;54.182;7.890;2024-03-07T14:51:24;9.52;;;8.63;;
21647;SDS011;10985;54.182;7.890;2024-03-07T14:53:50;10.48;;;9.23;;
21647;SDS011;10985;54.182;7.890;2024-03-07T14:56:16;10.35;;;9.25;;
21647;SDS011;10985;54.182;7.890;2024-03-07T14:58:44;13.18;;;9.48;;
21647;SDS011;10985;54.182;7.890;2024-03-07T15:01:10;10.93;;;9.82;;
21647;SDS011;10985;54.182;7.890;2024-03-07T15:03:38;11.00;;;9.80;;
21647;SDS011;10985;54.182;7.890;2024-03-07T15:06:04;11.25;;;10.10;;
21647;SDS011;10985;54.182;7.890;2024-03-07T15:08:33;10.18;;;9.10;;
21647;SDS011;10985;54.182;7.890;2024-03-07T15:11:03;11.23;;;10.02;;
21647;SDS011;10985;54.182;7.890;2024-03-07T15:13:38;11.32;;;9.40;;